sensor_id;sensor_type;location;lat;lon;timestamp;P1;durP1;ratioP1;P2;durP2;ratioP2
18159;SDS011;9205;52.032;4.314;2022-08-02T00:00:59;0.73;;;0.70;;
18159;SDS011;9205;52.032;4.314;2022-08-02T00:03:26;1.70;;;0.90;;
18159;SDS011;9205;52.032;4.314;2022-08-02T00:05:53;0.70;;;0.53;;
18159;SDS011;9205;52.032;4.314;2022-08-02T00:08:22;0.87;;;0.73;;
18159;SDS011;9205;52.032;4.314;2022-08-02T00:10:49;1.50;;;0.67;;
18159;SDS011;9205;52.032;4.314;2022-08-02T00:13:17;2.20;;;0.70;;
18159;SDS011;9205;52.032;4.314;2022-08-02T00:15:47;1.03;;;0.57;;
18159;SDS011;9205;52.032;4.314;2022-08-02T00:18:14;2.63;;;0.70;;
18159;SDS011;9205;52.032;4.314;2022-08-02T00:20:42;0.57;;;0.57;;
18159;SDS011;9205;52.032;4.314;2022-08-02T00:23:09;3.13;;;0.80;;
18159;SDS011;9205;52.032;4.314;2022-08-02T00:25:37;1.03;;;0.80;;
18159;SDS011;9205;52.032;4.314;2022-08-02T00:28:05;1.23;;;0.70;;
18159;SDS011;9205;52.032;4.314;2022-08-02T00:30:32;1.47;;;0.70;;
18159;SDS011;9205;52.032;4.314;2022-08-02T00:32:59;1.70;;;0.93;;
18159;SDS011;9205;52.032;4.314;2022-08-02T00:35:29;2.07;;;0.87;;
18159;SDS011;9205;52.032;4.314;2022-08-02T00:38:02;2.03;;;1.27;;
18159;SDS011;9205;52.032;4.314;2022-08-02T00:40:30;2.07;;;0.70;;
18159;SDS011;9205;52.032;4.314;2022-08-02T00:43:03;0.80;;;0.70;;
18159;SDS011;9205;52.032;4.314;2022-08-02T00:45:34;0.70;;;0.70;;
18159;SDS011;9205;52.032;4.314;2022-08-02T00:48:04;1.63;;;0.80;;
18159;SDS011;9205;52.032;4.314;2022-08-02T00:50:34;2.10;;;0.90;;
18159;SDS011;9205;52.032;4.314;2022-08-02T00:53:02;0.93;;;0.80;;
18159;SDS011;9205;52.032;4.314;2022-08-02T00:55:30;0.60;;;0.60;;
18159;SDS011;9205;52.032;4.314;2022-08-02T00:57:58;1.00;;;0.70;;
18159;SDS011;9205;52.032;4.314;2022-08-02T01:00:27;0.83;;;0.77;;
18159;SDS011;9205;52.032;4.314;2022-08-02T01:02:54;2.00;;;0.80;;
18159;SDS011;9205;52.032;4.314;2022-08-02T01:05:25;2.37;;;1.00;;
18159;SDS011;9205;52.032;4.314;2022-08-02T01:07:52;1.47;;;0.80;;
18159;SDS011;9205;52.032;4.314;2022-08-02T01:10:19;1.33;;;0.80;;
18159;SDS011;9205;52.032;4.314;2022-08-02T01:12:47;0.90;;;0.60;;
18159;SDS011;9205;52.032;4.314;2022-08-02T01:15:14;2.10;;;0.80;;
18159;SDS011;9205;52.032;4.314;2022-08-02T01:17:45;0.70;;;0.70;;
18159;SDS011;9205;52.032;4.314;2022-08-02T01:20:26;2.37;;;1.07;;
18159;SDS011;9205;52.032;4.314;2022-08-02T01:23:34;0.97;;;0.80;;
18159;SDS011;9205;52.032;4.314;2022-08-02T01:26:25;2.20;;;0.80;;
18159;SDS011;9205;52.032;4.314;2022-08-02T01:29:09;0.77;;;0.77;;
18159;SDS011;9205;52.032;4.314;2022-08-02T01:31:48;2.30;;;1.00;;
18159;SDS011;9205;52.032;4.314;2022-08-02T01:34:23;0.80;;;0.77;;
18159;SDS011;9205;52.032;4.314;2022-08-02T01:37:00;0.77;;;0.70;;
18159;SDS011;9205;52.032;4.314;2022-08-02T01:39:36;1.67;;;0.90;;
18159;SDS011;9205;52.032;4.314;2022-08-02T01:42:07;3.63;;;1.10;;
18159;SDS011;9205;52.032;4.314;2022-08-02T01:44:39;1.03;;;0.77;;
18159;SDS011;9205;52.032;4.314;2022-08-02T01:47:10;0.80;;;0.80;;
18159;SDS011;9205;52.032;4.314;2022-08-02T01:49:45;1.00;;;0.80;;
18159;SDS011;9205;52.032;4.314;2022-08-02T01:52:18;0.93;;;0.80;;
18159;SDS011;9205;52.032;4.314;2022-08-02T01:54:47;2.90;;;0.77;;
18159;SDS011;9205;52.032;4.314;2022-08-02T01:57:23;1.40;;;0.90;;
18159;SDS011;9205;52.032;4.314;2022-08-02T01:59:54;2.00;;;1.10;;
18159;SDS011;9205;52.032;4.314;2022-08-02T02:02:24;2.63;;;0.80;;
18159;SDS011;9205;52.032;4.314;2022-08-02T02:04:59;2.83;;;0.90;;
18159;SDS011;9205;52.032;4.314;2022-08-02T02:07:28;1.20;;;0.83;;
18159;SDS011;9205;52.032;4.314;2022-08-02T02:10:00;0.67;;;0.67;;
18159;SDS011;9205;52.032;4.314;2022-08-02T02:12:32;0.70;;;0.70;;
18159;SDS011;9205;52.032;4.314;2022-08-02T02:15:06;0.80;;;0.70;;
18159;SDS011;9205;52.032;4.314;2022-08-02T02:17:37;1.43;;;0.80;;
18159;SDS011;9205;52.032;4.314;2022-08-02T02:20:09;0.60;;;0.60;;
18159;SDS011;9205;52.032;4.314;2022-08-02T02:22:43;1.67;;;1.10;;
18159;SDS011;9205;52.032;4.314;2022-08-02T02:25:11;3.17;;;1.30;;
18159;SDS011;9205;52.032;4.314;2022-08-02T02:27:45;0.77;;;0.70;;
18159;SDS011;9205;52.032;4.314;2022-08-02T02:30:22;0.80;;;0.80;;
18159;SDS011;9205;52.032;4.314;2022-08-02T02:32:54;1.87;;;1.00;;
18159;SDS011;9205;52.032;4.314;2022-08-02T02:35:26;1.17;;;1.00;;
18159;SDS011;9205;52.032;4.314;2022-08-02T02:37:59;1.03;;;0.90;;
18159;SDS011;9205;52.032;4.314;2022-08-02T02:40:30;1.17;;;0.70;;
18159;SDS011;9205;52.032;4.314;2022-08-02T02:43:02;1.60;;;1.00;;
18159;SDS011;9205;52.032;4.314;2022-08-02T02:45:33;1.30;;;0.90;;
18159;SDS011;9205;52.032;4.314;2022-08-02T02:48:04;1.43;;;0.90;;
18159;SDS011;9205;52.032;4.314;2022-08-02T02:50:33;0.97;;;0.80;;
18159;SDS011;9205;52.032;4.314;2022-08-02T02:53:02;1.53;;;0.80;;
18159;SDS011;9205;52.032;4.314;2022-08-02T02:55:32;1.53;;;0.80;;
18159;SDS011;9205;52.032;4.314;2022-08-02T02:57:59;1.63;;;0.80;;
18159;SDS011;9205;52.032;4.314;2022-08-02T03:00:28;0.93;;;0.70;;
18159;SDS011;9205;52.032;4.314;2022-08-02T03:03:11;2.73;;;0.80;;
18159;SDS011;9205;52.032;4.314;2022-08-02T03:05:40;1.90;;;0.70;;
18159;SDS011;9205;52.032;4.314;2022-08-02T03:08:10;2.77;;;0.97;;
18159;SDS011;9205;52.032;4.314;2022-08-02T03:10:38;1.30;;;0.90;;
18159;SDS011;9205;52.032;4.314;2022-08-02T03:13:07;1.50;;;0.83;;
18159;SDS011;9205;52.032;4.314;2022-08-02T03:15:36;1.67;;;0.93;;
18159;SDS011;9205;52.032;4.314;2022-08-02T03:18:06;1.20;;;0.80;;
18159;SDS011;9205;52.032;4.314;2022-08-02T03:20:34;0.70;;;0.70;;
18159;SDS011;9205;52.032;4.314;2022-08-02T03:23:04;1.57;;;0.80;;
18159;SDS011;9205;52.032;4.314;2022-08-02T03:25:31;2.47;;;0.90;;
18159;SDS011;9205;52.032;4.314;2022-08-02T03:27:58;0.90;;;0.70;;
18159;SDS011;9205;52.032;4.314;2022-08-02T03:30:26;0.93;;;0.80;;
18159;SDS011;9205;52.032;4.314;2022-08-02T03:32:53;0.70;;;0.70;;
18159;SDS011;9205;52.032;4.314;2022-08-02T03:35:20;0.60;;;0.60;;
18159;SDS011;9205;52.032;4.314;2022-08-02T03:37:52;1.00;;;0.60;;
18159;SDS011;9205;52.032;4.314;2022-08-02T03:40:25;2.10;;;0.87;;
18159;SDS011;9205;52.032;4.314;2022-08-02T03:42:57;0.80;;;0.80;;
18159;SDS011;9205;52.032;4.314;2022-08-02T03:45:27;1.73;;;1.00;;
18159;SDS011;9205;52.032;4.314;2022-08-02T03:47:55;0.90;;;0.70;;
18159;SDS011;9205;52.032;4.314;2022-08-02T03:50:24;1.00;;;0.90;;
18159;SDS011;9205;52.032;4.314;2022-08-02T03:52:54;1.13;;;0.80;;
18159;SDS011;9205;52.032;4.314;2022-08-02T03:55:23;0.80;;;0.70;;
18159;SDS011;9205;52.032;4.314;2022-08-02T03:57:50;0.70;;;0.70;;
18159;SDS011;9205;52.032;4.314;2022-08-02T04:00:18;1.33;;;0.80;;
18159;SDS011;9205;52.032;4.314;2022-08-02T04:02:47;1.23;;;0.70;;
18159;SDS011;9205;52.032;4.314;2022-08-02T04:05:15;0.80;;;0.80;;
18159;SDS011;9205;52.032;4.314;2022-08-02T04:07:46;1.40;;;0.80;;
18159;SDS011;9205;52.032;4.314;2022-08-02T04:10:16;1.83;;;0.90;;
18159;SDS011;9205;52.032;4.314;2022-08-02T04:12:43;0.60;;;0.60;;
18159;SDS011;9205;52.032;4.314;2022-08-02T04:15:11;1.83;;;0.83;;
18159;SDS011;9205;52.032;4.314;2022-08-02T04:17:41;0.80;;;0.80;;
18159;SDS011;9205;52.032;4.314;2022-08-02T04:20:17;1.00;;;0.90;;
18159;SDS011;9205;52.032;4.314;2022-08-02T04:22:48;1.67;;;0.80;;
18159;SDS011;9205;52.032;4.314;2022-08-02T04:25:26;1.50;;;0.80;;
18159;SDS011;9205;52.032;4.314;2022-08-02T04:27:53;2.30;;;0.80;;
18159;SDS011;9205;52.032;4.314;2022-08-02T04:30:21;1.47;;;0.80;;
18159;SDS011;9205;52.032;4.314;2022-08-02T04:32:50;1.03;;;0.90;;
18159;SDS011;9205;52.032;4.314;2022-08-02T04:35:18;1.73;;;0.90;;
18159;SDS011;9205;52.032;4.314;2022-08-02T04:37:48;0.93;;;0.83;;
18159;SDS011;9205;52.032;4.314;2022-08-02T04:40:18;1.70;;;0.80;;
18159;SDS011;9205;52.032;4.314;2022-08-02T04:42:49;2.20;;;0.90;;
18159;SDS011;9205;52.032;4.314;2022-08-02T04:45:19;2.00;;;1.27;;
18159;SDS011;9205;52.032;4.314;2022-08-02T04:47:50;0.97;;;0.87;;
18159;SDS011;9205;52.032;4.314;2022-08-02T04:50:18;1.17;;;0.90;;
18159;SDS011;9205;52.032;4.314;2022-08-02T04:52:46;3.70;;;1.17;;
18159;SDS011;9205;52.032;4.314;2022-08-02T04:55:13;3.27;;;1.00;;
18159;SDS011;9205;52.032;4.314;2022-08-02T04:57:40;2.53;;;1.20;;
18159;SDS011;9205;52.032;4.314;2022-08-02T05:00:21;1.30;;;1.20;;
18159;SDS011;9205;52.032;4.314;2022-08-02T05:02:50;1.50;;;1.00;;
18159;SDS011;9205;52.032;4.314;2022-08-02T05:05:18;2.03;;;1.20;;
18159;SDS011;9205;52.032;4.314;2022-08-02T05:07:48;1.43;;;1.10;;
18159;SDS011;9205;52.032;4.314;2022-08-02T05:10:15;1.67;;;1.30;;
18159;SDS011;9205;52.032;4.314;2022-08-02T05:12:42;3.97;;;1.13;;
18159;SDS011;9205;52.032;4.314;2022-08-02T05:15:10;3.60;;;1.47;;
18159;SDS011;9205;52.032;4.314;2022-08-02T05:17:42;1.23;;;1.13;;
18159;SDS011;9205;52.032;4.314;2022-08-02T05:20:10;1.23;;;1.07;;
18159;SDS011;9205;52.032;4.314;2022-08-02T05:22:38;2.27;;;1.20;;
18159;SDS011;9205;52.032;4.314;2022-08-02T05:25:09;2.03;;;1.40;;
18159;SDS011;9205;52.032;4.314;2022-08-02T05:27:40;1.80;;;1.33;;
18159;SDS011;9205;52.032;4.314;2022-08-02T05:30:08;1.83;;;1.40;;
18159;SDS011;9205;52.032;4.314;2022-08-02T05:32:45;1.70;;;1.30;;
18159;SDS011;9205;52.032;4.314;2022-08-02T05:35:16;1.30;;;1.13;;
18159;SDS011;9205;52.032;4.314;2022-08-02T05:37:45;2.20;;;1.30;;
18159;SDS011;9205;52.032;4.314;2022-08-02T05:40:13;2.47;;;1.37;;
18159;SDS011;9205;52.032;4.314;2022-08-02T05:42:48;2.73;;;1.60;;
18159;SDS011;9205;52.032;4.314;2022-08-02T05:45:25;3.13;;;1.50;;
18159;SDS011;9205;52.032;4.314;2022-08-02T05:48:07;1.50;;;1.30;;
18159;SDS011;9205;52.032;4.314;2022-08-02T05:50:37;2.43;;;1.87;;
18159;SDS011;9205;52.032;4.314;2022-08-02T05:53:15;1.80;;;1.37;;
18159;SDS011;9205;52.032;4.314;2022-08-02T05:55:52;2.50;;;1.70;;
18159;SDS011;9205;52.032;4.314;2022-08-02T05:58:30;5.00;;;2.53;;
18159;SDS011;9205;52.032;4.314;2022-08-02T06:01:09;4.13;;;1.93;;
18159;SDS011;9205;52.032;4.314;2022-08-02T06:03:46;2.30;;;1.80;;
18159;SDS011;9205;52.032;4.314;2022-08-02T06:06:18;3.27;;;2.23;;
18159;SDS011;9205;52.032;4.314;2022-08-02T06:08:50;4.20;;;2.70;;
18159;SDS011;9205;52.032;4.314;2022-08-02T06:11:28;5.37;;;2.77;;
18159;SDS011;9205;52.032;4.314;2022-08-02T06:14:02;5.03;;;2.80;;
18159;SDS011;9205;52.032;4.314;2022-08-02T06:16:35;10.23;;;3.13;;
18159;SDS011;9205;52.032;4.314;2022-08-02T06:19:13;4.57;;;3.10;;
18159;SDS011;9205;52.032;4.314;2022-08-02T06:21:43;7.87;;;3.43;;
18159;SDS011;9205;52.032;4.314;2022-08-02T06:24:19;6.40;;;4.07;;
18159;SDS011;9205;52.032;4.314;2022-08-02T06:26:50;6.73;;;3.60;;
18159;SDS011;9205;52.032;4.314;2022-08-02T06:29:24;6.00;;;3.43;;
18159;SDS011;9205;52.032;4.314;2022-08-02T06:32:13;7.90;;;4.27;;
18159;SDS011;9205;52.032;4.314;2022-08-02T06:34:45;10.27;;;5.03;;
18159;SDS011;9205;52.032;4.314;2022-08-02T06:37:13;10.80;;;5.57;;
18159;SDS011;9205;52.032;4.314;2022-08-02T06:39:53;13.27;;;5.80;;
18159;SDS011;9205;52.032;4.314;2022-08-02T06:42:33;13.47;;;6.00;;
18159;SDS011;9205;52.032;4.314;2022-08-02T06:45:10;14.03;;;6.37;;
18159;SDS011;9205;52.032;4.314;2022-08-02T06:47:37;12.23;;;5.90;;
18159;SDS011;9205;52.032;4.314;2022-08-02T06:50:06;12.77;;;6.33;;
18159;SDS011;9205;52.032;4.314;2022-08-02T06:53:14;12.93;;;6.77;;
18159;SDS011;9205;52.032;4.314;2022-08-02T06:55:45;13.63;;;6.97;;
18159;SDS011;9205;52.032;4.314;2022-08-02T06:58:13;12.67;;;6.80;;
18159;SDS011;9205;52.032;4.314;2022-08-02T07:01:04;15.40;;;6.27;;
18159;SDS011;9205;52.032;4.314;2022-08-02T07:03:32;10.33;;;6.23;;
18159;SDS011;9205;52.032;4.314;2022-08-02T07:06:01;10.57;;;5.90;;
18159;SDS011;9205;52.032;4.314;2022-08-02T07:08:29;12.33;;;6.00;;
18159;SDS011;9205;52.032;4.314;2022-08-02T07:11:00;13.13;;;6.83;;
18159;SDS011;9205;52.032;4.314;2022-08-02T07:13:28;12.40;;;5.80;;
18159;SDS011;9205;52.032;4.314;2022-08-02T07:15:55;10.47;;;5.43;;
18159;SDS011;9205;52.032;4.314;2022-08-02T07:18:23;13.83;;;6.17;;
18159;SDS011;9205;52.032;4.314;2022-08-02T07:20:50;10.43;;;5.80;;
18159;SDS011;9205;52.032;4.314;2022-08-02T07:23:19;11.80;;;6.43;;
18159;SDS011;9205;52.032;4.314;2022-08-02T07:25:46;13.00;;;6.10;;
18159;SDS011;9205;52.032;4.314;2022-08-02T07:28:14;12.43;;;6.47;;
18159;SDS011;9205;52.032;4.314;2022-08-02T07:30:41;11.73;;;6.30;;
18159;SDS011;9205;52.032;4.314;2022-08-02T07:33:09;10.63;;;5.70;;
18159;SDS011;9205;52.032;4.314;2022-08-02T07:35:39;11.73;;;6.00;;
18159;SDS011;9205;52.032;4.314;2022-08-02T07:38:06;9.23;;;4.90;;
18159;SDS011;9205;52.032;4.314;2022-08-02T07:40:35;10.90;;;5.90;;
18159;SDS011;9205;52.032;4.314;2022-08-02T07:43:05;10.57;;;5.43;;
18159;SDS011;9205;52.032;4.314;2022-08-02T07:45:35;8.70;;;5.20;;
18159;SDS011;9205;52.032;4.314;2022-08-02T07:48:05;10.50;;;5.67;;
18159;SDS011;9205;52.032;4.314;2022-08-02T07:50:33;9.73;;;5.50;;
18159;SDS011;9205;52.032;4.314;2022-08-02T07:53:00;9.13;;;5.23;;
18159;SDS011;9205;52.032;4.314;2022-08-02T07:55:27;9.13;;;5.13;;
18159;SDS011;9205;52.032;4.314;2022-08-02T07:57:56;11.33;;;5.40;;
18159;SDS011;9205;52.032;4.314;2022-08-02T08:00:23;11.53;;;5.53;;
18159;SDS011;9205;52.032;4.314;2022-08-02T08:02:50;7.07;;;4.13;;
18159;SDS011;9205;52.032;4.314;2022-08-02T08:05:20;9.30;;;4.80;;
18159;SDS011;9205;52.032;4.314;2022-08-02T08:07:53;7.20;;;4.50;;
18159;SDS011;9205;52.032;4.314;2022-08-02T08:10:23;7.57;;;4.13;;
18159;SDS011;9205;52.032;4.314;2022-08-02T08:12:51;8.40;;;4.53;;
18159;SDS011;9205;52.032;4.314;2022-08-02T08:15:20;7.73;;;4.37;;
18159;SDS011;9205;52.032;4.314;2022-08-02T08:17:51;9.27;;;4.80;;
18159;SDS011;9205;52.032;4.314;2022-08-02T08:20:18;7.60;;;4.40;;
18159;SDS011;9205;52.032;4.314;2022-08-02T08:22:46;7.00;;;4.80;;
18159;SDS011;9205;52.032;4.314;2022-08-02T08:25:13;6.87;;;4.50;;
18159;SDS011;9205;52.032;4.314;2022-08-02T08:27:46;9.17;;;5.07;;
18159;SDS011;9205;52.032;4.314;2022-08-02T08:30:14;6.60;;;4.13;;
18159;SDS011;9205;52.032;4.314;2022-08-02T08:32:45;6.37;;;4.00;;
18159;SDS011;9205;52.032;4.314;2022-08-02T08:35:15;6.73;;;3.63;;
18159;SDS011;9205;52.032;4.314;2022-08-02T08:37:43;6.60;;;3.70;;
18159;SDS011;9205;52.032;4.314;2022-08-02T08:40:10;6.97;;;4.53;;
18159;SDS011;9205;52.032;4.314;2022-08-02T08:42:39;5.33;;;3.40;;
18159;SDS011;9205;52.032;4.314;2022-08-02T08:45:07;6.97;;;4.40;;
18159;SDS011;9205;52.032;4.314;2022-08-02T08:47:36;7.23;;;4.43;;
18159;SDS011;9205;52.032;4.314;2022-08-02T08:50:07;6.53;;;3.73;;
18159;SDS011;9205;52.032;4.314;2022-08-02T08:52:39;7.10;;;3.67;;
18159;SDS011;9205;52.032;4.314;2022-08-02T08:55:13;5.60;;;3.57;;
18159;SDS011;9205;52.032;4.314;2022-08-02T08:57:44;5.57;;;3.80;;
18159;SDS011;9205;52.032;4.314;2022-08-02T09:00:16;5.53;;;3.70;;
18159;SDS011;9205;52.032;4.314;2022-08-02T09:02:43;5.20;;;3.37;;
18159;SDS011;9205;52.032;4.314;2022-08-02T09:05:13;5.17;;;3.00;;
18159;SDS011;9205;52.032;4.314;2022-08-02T09:07:45;6.40;;;3.33;;
18159;SDS011;9205;52.032;4.314;2022-08-02T09:13:05;4.10;;;2.67;;
18159;SDS011;9205;52.032;4.314;2022-08-02T09:15:40;4.53;;;2.90;;
18159;SDS011;9205;52.032;4.314;2022-08-02T09:18:17;7.00;;;3.10;;
18159;SDS011;9205;52.032;4.314;2022-08-02T09:20:56;6.27;;;2.97;;
18159;SDS011;9205;52.032;4.314;2022-08-02T09:23:25;4.53;;;2.90;;
18159;SDS011;9205;52.032;4.314;2022-08-02T09:26:00;4.17;;;2.70;;
18159;SDS011;9205;52.032;4.314;2022-08-02T09:28:34;4.30;;;2.90;;
18159;SDS011;9205;52.032;4.314;2022-08-02T09:31:06;4.17;;;2.90;;
18159;SDS011;9205;52.032;4.314;2022-08-02T09:33:36;6.00;;;3.03;;
18159;SDS011;9205;52.032;4.314;2022-08-02T09:36:09;3.20;;;2.70;;
18159;SDS011;9205;52.032;4.314;2022-08-02T09:38:39;3.80;;;2.80;;
18159;SDS011;9205;52.032;4.314;2022-08-02T09:41:19;5.20;;;2.50;;
18159;SDS011;9205;52.032;4.314;2022-08-02T09:43:49;4.60;;;2.67;;
18159;SDS011;9205;52.032;4.314;2022-08-02T09:46:20;3.57;;;2.63;;
18159;SDS011;9205;52.032;4.314;2022-08-02T09:48:50;3.53;;;2.43;;
18159;SDS011;9205;52.032;4.314;2022-08-02T09:51:22;5.93;;;3.40;;
18159;SDS011;9205;52.032;4.314;2022-08-02T09:53:52;4.07;;;2.40;;
18159;SDS011;9205;52.032;4.314;2022-08-02T09:56:23;4.23;;;2.90;;
18159;SDS011;9205;52.032;4.314;2022-08-02T09:58:52;3.87;;;2.60;;
18159;SDS011;9205;52.032;4.314;2022-08-02T10:01:29;3.60;;;2.33;;
18159;SDS011;9205;52.032;4.314;2022-08-02T10:03:59;5.03;;;2.80;;
18159;SDS011;9205;52.032;4.314;2022-08-02T10:06:30;5.43;;;2.65;;
18159;SDS011;9205;52.032;4.314;2022-08-02T10:08:59;5.17;;;2.50;;
18159;SDS011;9205;52.032;4.314;2022-08-02T10:11:27;4.60;;;2.47;;
18159;SDS011;9205;52.032;4.314;2022-08-02T10:13:56;4.43;;;2.43;;
18159;SDS011;9205;52.032;4.314;2022-08-02T10:16:23;5.07;;;2.67;;
18159;SDS011;9205;52.032;4.314;2022-08-02T10:18:54;6.18;;;2.85;;
18159;SDS011;9205;52.032;4.314;2022-08-02T10:21:35;5.38;;;2.88;;
18159;SDS011;9205;52.032;4.314;2022-08-02T10:24:10;4.20;;;2.60;;
18159;SDS011;9205;52.032;4.314;2022-08-02T10:26:41;3.03;;;2.07;;
18159;SDS011;9205;52.032;4.314;2022-08-02T10:29:14;4.97;;;2.97;;
18159;SDS011;9205;52.032;4.314;2022-08-02T10:31:48;10.80;;;2.33;;
18159;SDS011;9205;52.032;4.314;2022-08-02T10:34:22;4.15;;;2.50;;
18159;SDS011;9205;52.032;4.314;2022-08-02T10:36:58;3.45;;;2.30;;
18159;SDS011;9205;52.032;4.314;2022-08-02T10:39:36;3.05;;;2.30;;
18159;SDS011;9205;52.032;4.314;2022-08-02T10:42:05;4.80;;;2.20;;
18159;SDS011;9205;52.032;4.314;2022-08-02T10:44:33;3.53;;;2.10;;
18159;SDS011;9205;52.032;4.314;2022-08-02T10:47:19;3.45;;;2.28;;
18159;SDS011;9205;52.032;4.314;2022-08-02T10:49:51;2.85;;;1.60;;
18159;SDS011;9205;52.032;4.314;2022-08-02T10:52:25;3.00;;;2.05;;
18159;SDS011;9205;52.032;4.314;2022-08-02T10:54:54;2.47;;;2.10;;
18159;SDS011;9205;52.032;4.314;2022-08-02T10:57:24;2.88;;;1.77;;
18159;SDS011;9205;52.032;4.314;2022-08-02T10:59:54;3.10;;;1.95;;
18159;SDS011;9205;52.032;4.314;2022-08-02T11:02:33;2.38;;;1.60;;
18159;SDS011;9205;52.032;4.314;2022-08-02T11:05:10;2.80;;;1.38;;
18159;SDS011;9205;52.032;4.314;2022-08-02T11:07:43;2.85;;;1.30;;
18159;SDS011;9205;52.032;4.314;2022-08-02T11:13:10;2.58;;;1.98;;
18159;SDS011;9205;52.032;4.314;2022-08-02T11:15:46;2.42;;;1.50;;
18159;SDS011;9205;52.032;4.314;2022-08-02T11:21:28;3.95;;;1.63;;
18159;SDS011;9205;52.032;4.314;2022-08-02T11:24:22;1.88;;;1.50;;
18159;SDS011;9205;52.032;4.314;2022-08-02T11:26:52;3.35;;;1.75;;
18159;SDS011;9205;52.032;4.314;2022-08-02T11:29:21;2.70;;;1.60;;
18159;SDS011;9205;52.032;4.314;2022-08-02T11:31:58;2.80;;;1.65;;
18159;SDS011;9205;52.032;4.314;2022-08-02T11:34:26;2.53;;;1.63;;
18159;SDS011;9205;52.032;4.314;2022-08-02T11:36:56;1.85;;;1.58;;
18159;SDS011;9205;52.032;4.314;2022-08-02T11:39:25;1.60;;;1.30;;
18159;SDS011;9205;52.032;4.314;2022-08-02T11:41:53;1.77;;;1.67;;
18159;SDS011;9205;52.032;4.314;2022-08-02T11:44:22;3.28;;;1.52;;
18159;SDS011;9205;52.032;4.314;2022-08-02T11:46:54;3.05;;;1.35;;
18159;SDS011;9205;52.032;4.314;2022-08-02T11:49:22;2.20;;;1.67;;
18159;SDS011;9205;52.032;4.314;2022-08-02T11:51:53;2.65;;;1.77;;
18159;SDS011;9205;52.032;4.314;2022-08-02T11:54:28;2.75;;;1.35;;
18159;SDS011;9205;52.032;4.314;2022-08-02T11:57:13;1.83;;;1.35;;
18159;SDS011;9205;52.032;4.314;2022-08-02T11:59:43;2.90;;;1.30;;
18159;SDS011;9205;52.032;4.314;2022-08-02T12:02:12;2.42;;;1.33;;
18159;SDS011;9205;52.032;4.314;2022-08-02T12:04:41;1.10;;;1.00;;
18159;SDS011;9205;52.032;4.314;2022-08-02T12:07:09;1.88;;;1.10;;
18159;SDS011;9205;52.032;4.314;2022-08-02T12:09:38;2.72;;;1.30;;
18159;SDS011;9205;52.032;4.314;2022-08-02T12:12:05;1.40;;;1.10;;
18159;SDS011;9205;52.032;4.314;2022-08-02T12:14:33;3.35;;;1.50;;
18159;SDS011;9205;52.032;4.314;2022-08-02T12:17:10;2.33;;;1.38;;
18159;SDS011;9205;52.032;4.314;2022-08-02T12:19:55;2.90;;;1.40;;
18159;SDS011;9205;52.032;4.314;2022-08-02T12:22:23;1.80;;;1.15;;
18159;SDS011;9205;52.032;4.314;2022-08-02T12:24:54;1.70;;;1.45;;
18159;SDS011;9205;52.032;4.314;2022-08-02T12:27:39;2.65;;;1.45;;
18159;SDS011;9205;52.032;4.314;2022-08-02T12:30:08;2.00;;;1.40;;
18159;SDS011;9205;52.032;4.314;2022-08-02T12:32:38;4.47;;;1.70;;
18159;SDS011;9205;52.032;4.314;2022-08-02T12:35:07;2.60;;;1.30;;
18159;SDS011;9205;52.032;4.314;2022-08-02T12:37:38;2.95;;;1.50;;
18159;SDS011;9205;52.032;4.314;2022-08-02T12:40:23;2.88;;;1.60;;
18159;SDS011;9205;52.032;4.314;2022-08-02T12:42:56;3.60;;;1.55;;
18159;SDS011;9205;52.032;4.314;2022-08-02T12:45:26;1.85;;;1.42;;
18159;SDS011;9205;52.032;4.314;2022-08-02T12:47:57;2.03;;;1.33;;
18159;SDS011;9205;52.032;4.314;2022-08-02T12:50:27;2.88;;;1.38;;
18159;SDS011;9205;52.032;4.314;2022-08-02T12:53:04;2.17;;;1.35;;
18159;SDS011;9205;52.032;4.314;2022-08-02T12:55:35;3.25;;;1.27;;
18159;SDS011;9205;52.032;4.314;2022-08-02T12:58:20;2.30;;;1.27;;
18159;SDS011;9205;52.032;4.314;2022-08-02T13:00:50;2.20;;;1.20;;
18159;SDS011;9205;52.032;4.314;2022-08-02T13:03:19;1.85;;;1.02;;
18159;SDS011;9205;52.032;4.314;2022-08-02T13:05:50;1.45;;;1.15;;
18159;SDS011;9205;52.032;4.314;2022-08-02T13:08:18;3.05;;;1.60;;
18159;SDS011;9205;52.032;4.314;2022-08-02T13:10:46;2.22;;;1.25;;
18159;SDS011;9205;52.032;4.314;2022-08-02T13:13:14;1.45;;;1.25;;
18159;SDS011;9205;52.032;4.314;2022-08-02T13:15:41;2.78;;;1.48;;
18159;SDS011;9205;52.032;4.314;2022-08-02T13:18:09;2.40;;;1.20;;
18159;SDS011;9205;52.032;4.314;2022-08-02T13:20:36;2.90;;;1.30;;
18159;SDS011;9205;52.032;4.314;2022-08-02T13:23:04;2.20;;;1.10;;
18159;SDS011;9205;52.032;4.314;2022-08-02T13:25:31;2.03;;;1.20;;
18159;SDS011;9205;52.032;4.314;2022-08-02T13:27:59;2.05;;;1.10;;
18159;SDS011;9205;52.032;4.314;2022-08-02T13:30:27;3.10;;;1.02;;
18159;SDS011;9205;52.032;4.314;2022-08-02T13:32:54;1.73;;;1.02;;
18159;SDS011;9205;52.032;4.314;2022-08-02T13:35:21;1.77;;;0.95;;
18159;SDS011;9205;52.032;4.314;2022-08-02T13:37:48;1.40;;;1.20;;
18159;SDS011;9205;52.032;4.314;2022-08-02T13:40:16;1.98;;;1.20;;
18159;SDS011;9205;52.032;4.314;2022-08-02T13:42:44;2.58;;;1.02;;
18159;SDS011;9205;52.032;4.314;2022-08-02T13:45:12;3.47;;;1.20;;
18159;SDS011;9205;52.032;4.314;2022-08-02T13:47:41;4.18;;;1.60;;
18159;SDS011;9205;52.032;4.314;2022-08-02T13:50:10;2.10;;;1.52;;
18159;SDS011;9205;52.032;4.314;2022-08-02T13:52:37;2.50;;;1.58;;
18159;SDS011;9205;52.032;4.314;2022-08-02T13:55:05;4.25;;;1.30;;
18159;SDS011;9205;52.032;4.314;2022-08-02T13:57:33;5.20;;;1.30;;
18159;SDS011;9205;52.032;4.314;2022-08-02T14:00:01;4.07;;;2.00;;
18159;SDS011;9205;52.032;4.314;2022-08-02T14:02:31;2.55;;;1.95;;
18159;SDS011;9205;52.032;4.314;2022-08-02T14:04:58;2.22;;;1.38;;
18159;SDS011;9205;52.032;4.314;2022-08-02T14:07:26;2.53;;;1.50;;
18159;SDS011;9205;52.032;4.314;2022-08-02T14:09:53;3.25;;;1.50;;
18159;SDS011;9205;52.032;4.314;2022-08-02T14:12:21;1.65;;;1.10;;
18159;SDS011;9205;52.032;4.314;2022-08-02T14:14:52;3.67;;;1.10;;
18159;SDS011;9205;52.032;4.314;2022-08-02T14:17:19;3.58;;;1.33;;
18159;SDS011;9205;52.032;4.314;2022-08-02T14:19:48;1.70;;;1.05;;
18159;SDS011;9205;52.032;4.314;2022-08-02T14:22:15;3.40;;;1.10;;
18159;SDS011;9205;52.032;4.314;2022-08-02T14:24:43;1.38;;;0.82;;
18159;SDS011;9205;52.032;4.314;2022-08-02T14:27:10;3.95;;;1.15;;
18159;SDS011;9205;52.032;4.314;2022-08-02T14:29:46;1.65;;;1.10;;
18159;SDS011;9205;52.032;4.314;2022-08-02T14:32:15;2.88;;;1.27;;
18159;SDS011;9205;52.032;4.314;2022-08-02T14:34:43;3.55;;;1.05;;
18159;SDS011;9205;52.032;4.314;2022-08-02T14:37:11;2.90;;;1.30;;
18159;SDS011;9205;52.032;4.314;2022-08-02T14:39:41;2.20;;;0.95;;
18159;SDS011;9205;52.032;4.314;2022-08-02T14:42:10;2.03;;;1.05;;
18159;SDS011;9205;52.032;4.314;2022-08-02T14:44:38;2.17;;;0.90;;
18159;SDS011;9205;52.032;4.314;2022-08-02T14:47:05;2.65;;;1.00;;
18159;SDS011;9205;52.032;4.314;2022-08-02T14:49:39;1.42;;;0.82;;
18159;SDS011;9205;52.032;4.314;2022-08-02T14:52:06;1.95;;;0.90;;
18159;SDS011;9205;52.032;4.314;2022-08-02T14:54:35;2.05;;;0.90;;
18159;SDS011;9205;52.032;4.314;2022-08-02T14:57:02;1.00;;;0.88;;
18159;SDS011;9205;52.032;4.314;2022-08-02T14:59:30;2.95;;;1.00;;
18159;SDS011;9205;52.032;4.314;2022-08-02T15:01:57;3.13;;;1.05;;
18159;SDS011;9205;52.032;4.314;2022-08-02T15:04:25;2.33;;;0.80;;
18159;SDS011;9205;52.032;4.314;2022-08-02T15:06:53;1.90;;;0.70;;
18159;SDS011;9205;52.032;4.314;2022-08-02T15:09:20;2.90;;;0.80;;
18159;SDS011;9205;52.032;4.314;2022-08-02T15:11:52;0.60;;;0.60;;
18159;SDS011;9205;52.032;4.314;2022-08-02T15:14:21;2.15;;;0.88;;
18159;SDS011;9205;52.032;4.314;2022-08-02T15:17:02;1.77;;;0.80;;
18159;SDS011;9205;52.032;4.314;2022-08-02T15:19:29;0.73;;;0.60;;
18159;SDS011;9205;52.032;4.314;2022-08-02T15:21:56;1.13;;;0.70;;
18159;SDS011;9205;52.032;4.314;2022-08-02T15:24:24;5.55;;;0.75;;
18159;SDS011;9205;52.032;4.314;2022-08-02T15:26:53;3.58;;;0.85;;
18159;SDS011;9205;52.032;4.314;2022-08-02T15:29:21;4.30;;;1.00;;
18159;SDS011;9205;52.032;4.314;2022-08-02T15:31:48;2.70;;;0.70;;